Time;durP1;ratioP1;P1;durP2;ratioP2;P2;SDS_P1;SDS_P2;PMS_P1;PMS_P2;Temp;Humidity;BMP_temperature;BMP_pressure;BME280_temperature;BME280_humidity;BME280_pressure;Samples;Min_cycle;Max_cycle;Signal;HPM_P1;HPM_P2
2023/01/25 00:02:21;;;;;;;16.38;11.25;;;3.40;99.90;;;;;;5052141;28;20198;-47
2023/01/25 00:04:46;;;;;;;15.60;11.00;;;3.40;99.90;;;;;;5051747;28;20215;-47
2023/01/25 00:07:12;;;;;;;18.08;11.85;;;3.40;99.90;;;;;;5052137;28;20253;-47
2023/01/25 00:09:37;;;;;;;17.15;11.95;;;3.40;99.90;;;;;;5065412;28;20200;-47
2023/01/25 00:12:03;;;;;;;17.77;11.70;;;3.40;99.90;;;;;;5072033;28;20170;-47
2023/01/25 00:14:29;;;;;;;20.50;13.93;;;3.40;99.90;;;;;;5072331;28;20184;-47
2023/01/25 00:16:54;;;;;;;18.98;12.10;;;3.40;99.90;;;;;;5072389;28;20166;-46
2023/01/25 00:19:20;;;;;;;20.95;13.55;;;3.40;99.90;;;;;;5071994;28;20511;-47
2023/01/25 00:21:45;;;;;;;18.77;12.77;;;3.40;99.90;;;;;;5071898;28;20205;-47
2023/01/25 00:24:13;;;;;;;19.27;13.30;;;3.50;99.90;;;;;;5071927;28;20166;-47
2023/01/25 00:26:38;;;;;;;20.65;13.68;;;3.40;99.90;;;;;;5071814;28;20176;-47
2023/01/25 00:29:04;;;;;;;20.63;13.70;;;3.40;99.90;;;;;;5060083;28;20182;-47
2023/01/25 00:31:32;;;;;;;20.60;13.13;;;3.40;99.90;;;;;;5065488;28;20643;-46
2023/01/25 00:34:23;;;;;;;20.48;14.00;;;3.40;99.90;;;;;;5071226;28;20170;-47
2023/01/25 00:36:55;;;;;;;17.10;11.55;;;3.40;99.90;;;;;;5071169;28;20162;-47
2023/01/25 00:39:22;;;;;;;18.08;12.15;;;3.40;99.90;;;;;;5071142;28;20213;-47
2023/01/25 00:41:48;;;;;;;17.83;11.82;;;3.40;99.90;;;;;;5070927;28;20697;-46
2023/01/25 00:44:13;;;;;;;19.50;12.63;;;3.50;99.90;;;;;;5071402;28;20181;-47
2023/01/25 00:46:39;;;;;;;18.75;12.57;;;3.40;99.90;;;;;;5071054;28;20170;-47
2023/01/25 00:49:05;;;;;;;21.27;13.77;;;3.40;99.90;;;;;;5061013;28;20171;-47
2023/01/25 00:51:30;;;;;;;20.02;13.43;;;3.40;99.90;;;;;;5051025;28;20163;-47
2023/01/25 00:53:56;;;;;;;20.40;13.15;;;3.40;99.90;;;;;;5051484;28;20179;-46
2023/01/25 00:56:21;;;;;;;19.98;13.05;;;3.50;99.90;;;;;;5051126;28;20173;-46
2023/01/25 00:58:47;;;;;;;18.33;11.73;;;3.40;99.90;;;;;;5051180;28;20185;-47
2023/01/25 01:01:12;;;;;;;20.60;14.07;;;3.40;99.90;;;;;;5050835;28;20253;-46
2023/01/25 01:03:38;;;;;;;24.13;13.13;;;3.50;99.90;;;;;;5050621;28;20686;-46
2023/01/25 01:06:09;;;;;;;19.23;12.93;;;3.50;99.90;;;;;;5051133;28;20638;-46
2023/01/25 01:08:38;;;;;;;18.25;12.82;;;3.60;99.90;;;;;;5060764;28;20645;-46
2023/01/25 01:11:06;;;;;;;20.13;13.13;;;3.60;99.90;;;;;;5069544;28;20170;-46
2023/01/25 01:13:33;;;;;;;20.95;13.10;;;3.50;99.90;;;;;;5070829;28;20162;-46
2023/01/25 01:16:04;;;;;;;17.90;12.80;;;3.60;99.90;;;;;;5071221;28;20194;-47
2023/01/25 01:18:36;;;;;;;21.95;14.27;;;3.60;99.90;;;;;;5071044;28;20217;-47
2023/01/25 01:21:02;;;;;;;21.58;13.15;;;3.60;99.90;;;;;;5071857;28;20162;-46
2023/01/25 01:23:29;;;;;;;20.90;13.68;;;3.50;99.90;;;;;;5074586;28;20174;-46
2023/01/25 01:25:54;;;;;;;17.30;11.73;;;3.60;99.90;;;;;;5074984;28;20169;-47
2023/01/25 01:28:20;;;;;;;18.27;11.60;;;3.50;99.90;;;;;;5061768;28;20182;-46
2023/01/25 01:30:46;;;;;;;17.70;11.80;;;3.50;99.90;;;;;;5054433;28;20574;-47
2023/01/25 01:33:11;;;;;;;17.25;11.98;;;3.40;99.90;;;;;;5054574;28;20569;-47
2023/01/25 01:35:37;;;;;;;17.48;12.25;;;3.40;99.90;;;;;;5054417;28;20245;-47
2023/01/25 01:38:02;;;;;;;23.38;13.48;;;3.50;99.90;;;;;;5054364;28;20552;-47
2023/01/25 01:40:28;;;;;;;21.90;13.32;;;3.60;99.90;;;;;;5054421;28;20170;-47
2023/01/25 01:42:57;;;;;;;19.17;12.15;;;3.60;99.90;;;;;;5054568;28;20198;-47
2023/01/25 01:45:42;;;;;;;18.92;12.10;;;2.10;99.90;;;;;;5054623;28;20159;-47
2023/01/25 01:48:14;;;;;;;19.10;12.45;;;3.60;99.90;;;;;;5065666;28;20664;-47
2023/01/25 01:50:39;;;;;;;19.15;12.48;;;3.50;99.90;;;;;;5057234;28;20224;-47
2023/01/25 01:53:06;;;;;;;18.33;12.25;;;3.40;99.90;;;;;;5054215;28;20178;-47
2023/01/25 01:55:31;;;;;;;34.85;13.27;;;3.40;99.90;;;;;;5052914;28;20623;-47
2023/01/25 01:57:59;;;;;;;15.75;11.45;;;3.50;99.90;;;;;;5054074;28;20216;-47
2023/01/25 02:00:32;;;;;;;17.90;12.15;;;3.50;99.90;;;;;;5054373;28;20244;-47
2023/01/25 02:02:58;;;;;;;17.58;11.15;;;3.40;99.90;;;;;;5052272;28;20824;-47
2023/01/25 02:05:37;;;;;;;20.40;12.80;;;3.40;99.90;;;;;;5052921;28;20178;-47
2023/01/25 02:08:05;;;;;;;19.83;13.13;;;3.50;99.90;;;;;;5066815;28;20177;-48
2023/01/25 02:10:31;;;;;;;23.02;13.13;;;3.40;99.90;;;;;;5072563;28;20174;-47
2023/01/25 02:12:58;;;;;;;23.35;14.57;;;1.30;99.90;;;;;;5074192;28;20645;-46
2023/01/25 02:15:31;;;;;;;21.42;13.82;;;3.50;99.90;;;;;;5072819;28;20168;-47
2023/01/25 02:17:58;;;;;;;22.13;14.57;;;3.40;99.90;;;;;;5073657;28;20154;-47
2023/01/25 02:20:38;;;;;;;19.38;13.45;;;3.50;99.90;;;;;;5073615;28;20186;-46
2023/01/25 02:23:29;;;;;;;23.20;14.55;;;3.50;99.90;;;;;;5073390;28;20201;-47
2023/01/25 02:25:57;;;;;;;21.27;14.00;;;3.50;99.90;;;;;;5073955;28;20162;-47
2023/01/25 02:28:35;;;;;;;24.15;15.68;;;3.40;99.90;;;;;;5055730;28;20171;-47
2023/01/25 02:31:00;;;;;;;23.17;14.98;;;3.50;99.90;;;;;;5053742;28;20263;-47
2023/01/25 02:33:27;;;;;;;21.45;14.55;;;3.50;99.90;;;;;;5051321;28;20642;-47
2023/01/25 02:36:07;;;;;;;23.60;15.23;;;3.40;99.90;;;;;;5053674;28;20190;-47
2023/01/25 02:38:38;;;;;;;21.45;14.55;;;3.40;99.90;;;;;;5053090;28;20171;-47
2023/01/25 02:41:16;;;;;;;20.98;13.32;;;3.50;99.90;;;;;;5053417;28;20178;-47
2023/01/25 02:43:42;;;;;;;19.73;13.70;;;3.50;99.90;;;;;;5053257;28;20182;-47
2023/01/25 02:46:21;;;;;;;21.33;13.88;;;3.50;99.90;;;;;;5052019;28;20530;-47
2023/01/25 02:48:47;;;;;;;26.15;15.57;;;3.50;99.90;;;;;;5052863;28;20174;-51
2023/01/25 02:51:13;;;;;;;20.80;12.82;;;3.40;99.90;;;;;;5051702;28;20178;-47
2023/01/25 02:53:38;;;;;;;18.10;11.93;;;3.50;99.90;;;;;;5051807;28;20183;-47
2023/01/25 02:56:04;;;;;;;16.98;11.80;;;3.50;99.90;;;;;;5053102;28;20171;-47
2023/01/25 02:58:30;;;;;;;16.77;11.88;;;3.50;99.90;;;;;;5051617;28;20634;-47
2023/01/25 03:00:57;;;;;;;20.90;12.95;;;3.50;99.90;;;;;;5051764;28;20166;-47
2023/01/25 03:03:23;;;;;;;20.83;12.70;;;3.40;99.90;;;;;;5051794;28;20321;-47
2023/01/25 03:05:48;;;;;;;19.20;12.68;;;3.40;99.90;;;;;;5068189;28;20254;-47
2023/01/25 03:08:14;;;;;;;21.45;13.18;;;3.40;99.90;;;;;;5072777;28;20231;-47
2023/01/25 03:10:40;;;;;;;22.00;13.10;;;3.40;99.90;;;;;;5072603;28;20158;-47
2023/01/25 03:13:05;;;;;;;19.42;13.10;;;3.40;99.90;;;;;;5072457;28;20252;-50
2023/01/25 03:15:31;;;;;;;21.90;13.52;;;3.50;99.90;;;;;;5072768;28;20174;-47
2023/01/25 03:17:57;;;;;;;29.10;14.57;;;3.40;99.90;;;;;;5072905;28;20162;-47
2023/01/25 03:20:23;;;;;;;20.92;13.93;;;3.40;99.90;;;;;;5073223;28;20201;-47
2023/01/25 03:22:48;;;;;;;23.88;13.65;;;3.50;99.90;;;;;;5071388;28;20202;-47
2023/01/25 03:25:14;;;;;;;26.77;16.15;;;3.50;99.90;;;;;;5072842;28;20653;-47
2023/01/25 03:27:40;;;;;;;17.83;12.48;;;3.50;99.90;;;;;;5066716;28;20218;-47
2023/01/25 03:30:06;;;;;;;28.35;16.33;;;3.40;99.90;;;;;;5071455;28;20170;-47
2023/01/25 03:32:32;;;;;;;35.15;17.23;;;3.40;99.90;;;;;;5071421;28;20211;-47
2023/01/25 03:34:58;;;;;;;17.15;11.68;;;3.50;99.90;;;;;;5072669;28;20572;-46
2023/01/25 03:37:28;;;;;;;17.33;12.15;;;3.50;99.90;;;;;;5071702;28;20234;-47
2023/01/25 03:39:54;;;;;;;18.50;11.43;;;3.40;99.90;;;;;;5073020;28;20168;-47
2023/01/25 03:42:20;;;;;;;20.35;13.23;;;3.30;99.90;;;;;;5072454;28;20294;-47
2023/01/25 03:44:46;;;;;;;36.80;18.55;;;3.40;99.90;;;;;;5070940;28;20625;-47
2023/01/25 03:47:12;;;;;;;26.92;14.00;;;3.40;99.90;;;;;;5056777;28;20171;-47
2023/01/25 03:49:37;;;;;;;23.65;14.10;;;3.40;99.90;;;;;;5051996;28;20178;-47
2023/01/25 03:52:03;;;;;;;24.33;14.02;;;3.50;99.90;;;;;;5052091;28;20186;-47
2023/01/25 03:54:29;;;;;;;24.90;13.43;;;3.50;99.90;;;;;;5050801;28;20170;-47
2023/01/25 03:56:54;;;;;;;30.15;16.63;;;3.40;99.90;;;;;;5052515;28;20256;-47
2023/01/25 03:59:20;;;;;;;18.70;11.07;;;3.40;99.90;;;;;;5050442;28;20665;-47
2023/01/25 04:01:45;;;;;;;22.20;13.05;;;3.40;99.90;;;;;;5050388;28;20198;-47
2023/01/25 04:04:11;;;;;;;22.60;13.80;;;3.30;99.90;;;;;;5051877;28;20217;-47
2023/01/25 04:06:37;;;;;;;23.20;12.90;;;3.30;99.90;;;;;;5063326;28;20202;-47
2023/01/25 04:09:03;;;;;;;18.55;12.70;;;3.40;99.90;;;;;;5070786;28;20268;-46
2023/01/25 04:11:29;;;;;;;24.70;13.93;;;3.30;99.90;;;;;;5072162;28;20184;-46
2023/01/25 04:13:54;;;;;;;23.58;14.50;;;3.30;99.90;;;;;;5072406;28;20170;-46
2023/01/25 04:16:20;;;;;;;24.73;14.27;;;3.40;99.90;;;;;;5071872;28;20312;-46
2023/01/25 04:18:46;;;;;;;28.08;16.55;;;3.40;99.90;;;;;;5071936;28;20173;-46
2023/01/25 04:21:11;;;;;;;24.65;13.95;;;3.40;99.90;;;;;;5070489;28;20177;-47
2023/01/25 04:23:37;;;;;;;21.00;12.10;;;3.40;99.90;;;;;;5070681;28;20260;-46
2023/01/25 04:26:09;;;;;;;22.90;13.00;;;3.30;99.90;;;;;;5061437;28;20171;-46
2023/01/25 04:28:35;;;;;;;20.65;13.65;;;3.30;99.90;;;;;;5051802;28;20159;-46
2023/01/25 04:31:02;;;;;;;22.52;12.63;;;3.20;99.90;;;;;;5051828;28;20177;-46
2023/01/25 04:33:28;;;;;;;17.80;12.32;;;3.40;99.90;;;;;;5050423;28;20198;-47
2023/01/25 04:35:54;;;;;;;17.35;11.00;;;3.20;99.90;;;;;;5052055;28;20622;-47
2023/01/25 04:38:20;;;;;;;21.00;12.38;;;3.30;99.90;;;;;;5051808;28;20167;-47
2023/01/25 04:40:46;;;;;;;18.38;11.85;;;3.30;99.90;;;;;;5062705;28;21054;-47
2023/01/25 04:43:13;;;;;;;25.20;15.55;;;3.30;99.90;;;;;;5071343;28;20223;-47
2023/01/25 04:45:39;;;;;;;18.60;12.27;;;3.40;99.90;;;;;;5070432;28;20166;-47
2023/01/25 04:48:10;;;;;;;22.35;13.23;;;3.40;99.90;;;;;;5071662;28;20181;-47
2023/01/25 04:50:37;;;;;;;17.83;11.82;;;3.40;99.90;;;;;;5070215;28;20166;-47
2023/01/25 04:53:03;;;;;;;16.13;11.35;;;3.30;99.90;;;;;;5070365;28;20166;-47
2023/01/25 04:55:29;;;;;;;15.35;10.27;;;3.30;99.90;;;;;;5065070;28;20178;-47
2023/01/25 04:57:54;;;;;;;18.67;12.75;;;3.30;99.90;;;;;;5056003;28;20530;-47
2023/01/25 05:00:20;;;;;;;16.48;11.57;;;3.30;99.90;;;;;;5055594;28;20657;-47
2023/01/25 05:02:46;;;;;;;20.52;12.25;;;3.40;99.90;;;;;;5055439;28;20574;-47
2023/01/25 05:05:12;;;;;;;22.17;12.98;;;3.40;99.90;;;;;;5055237;28;20218;-47
2023/01/25 05:07:38;;;;;;;15.85;11.52;;;3.40;99.90;;;;;;5055602;28;20198;-47
2023/01/25 05:10:05;;;;;;;21.17;13.07;;;3.30;99.90;;;;;;5055403;28;20646;-47
2023/01/25 05:12:31;;;;;;;21.50;14.15;;;3.40;99.90;;;;;;5055386;28;20175;-47
2023/01/25 05:14:56;;;;;;;34.17;17.50;;;3.40;99.90;;;;;;5055260;28;20171;-47
2023/01/25 05:17:22;;;;;;;27.30;17.00;;;3.30;99.90;;;;;;5061391;28;20170;-47
2023/01/25 05:19:47;;;;;;;29.50;17.30;;;3.40;99.90;;;;;;5075255;28;20170;-47
2023/01/25 05:22:14;;;;;;;30.13;17.27;;;3.30;99.90;;;;;;5075240;28;20544;-47
2023/01/25 05:24:40;;;;;;;30.15;18.45;;;3.30;99.90;;;;;;5075298;28;20170;-47
2023/01/25 05:27:07;;;;;;;30.85;18.55;;;3.20;99.90;;;;;;5075194;28;20235;-47
2023/01/25 05:29:43;;;;;;;34.95;20.63;;;3.30;99.90;;;;;;5075281;28;20182;-47
2023/01/25 05:32:16;;;;;;;32.92;19.63;;;3.30;99.90;;;;;;5075029;28;20236;-47
2023/01/25 05:34:42;;;;;;;31.25;17.92;;;3.30;99.90;;;;;;5075087;28;20235;-46
2023/01/25 05:37:09;;;;;;;28.40;17.05;;;3.30;99.90;;;;;;5068685;28;20221;-47
2023/01/25 05:39:35;;;;;;;25.92;16.15;;;3.30;99.90;;;;;;5055129;28;20189;-47
2023/01/25 05:42:00;;;;;;;28.10;16.63;;;3.40;99.90;;;;;;5054707;28;20559;-47
2023/01/25 05:44:26;;;;;;;28.45;18.10;;;3.30;99.90;;;;;;5054774;28;20170;-47
2023/01/25 05:46:52;;;;;;;27.55;16.33;;;3.20;99.90;;;;;;5055160;28;20253;-47
2023/01/25 05:49:18;;;;;;;26.88;16.77;;;3.20;99.90;;;;;;5054789;28;20171;-47
2023/01/25 05:51:44;;;;;;;43.95;21.45;;;3.20;99.90;;;;;;5054656;28;20561;-47
2023/01/25 05:54:15;;;;;;;30.83;17.05;;;3.20;99.90;;;;;;5054726;28;20166;-47
2023/01/25 05:56:42;;;;;;;31.55;18.48;;;3.30;99.90;;;;;;5058487;28;20173;-47
2023/01/25 05:59:09;;;;;;;29.48;15.30;;;3.20;99.90;;;;;;5074650;28;20687;-47
2023/01/25 06:01:35;;;;;;;32.63;19.05;;;3.20;99.90;;;;;;5074547;28;20198;-47
2023/01/25 06:04:00;;;;;;;31.63;18.63;;;3.20;99.90;;;;;;5074307;28;20289;-47
2023/01/25 06:06:26;;;;;;;41.22;20.83;;;3.00;99.90;;;;;;5074383;28;20173;-47
2023/01/25 06:08:52;;;;;;;28.58;16.20;;;3.10;99.90;;;;;;5074757;28;20177;-47
2023/01/25 06:11:23;;;;;;;31.42;17.48;;;3.10;99.90;;;;;;5074355;28;20656;-47
2023/01/25 06:13:49;;;;;;;29.90;16.55;;;3.20;99.90;;;;;;5074673;28;20542;-47
2023/01/25 06:16:16;;;;;;;32.25;18.50;;;3.10;99.90;;;;;;5073665;28;20174;-47
2023/01/25 06:18:42;;;;;;;27.08;18.00;;;3.00;99.90;;;;;;5073323;28;20223;-47
2023/01/25 06:21:08;;;;;;;32.60;18.95;;;3.20;99.90;;;;;;5074477;28;20166;-47
2023/01/25 06:23:34;;;;;;;34.90;20.23;;;3.20;99.90;;;;;;5074079;28;20206;-47
2023/01/25 06:26:05;;;;;;;36.47;18.77;;;3.30;99.90;;;;;;5073594;28;20621;-46
2023/01/25 06:28:32;;;;;;;35.97;19.83;;;3.20;99.90;;;;;;5074006;28;20512;-46
2023/01/25 06:31:24;;;;;;;31.08;19.02;;;3.30;99.90;;;;;;5073831;28;20685;-46
2023/01/25 06:33:50;;;;;;;35.70;17.77;;;3.20;99.90;;;;;;5071755;28;20182;-47
2023/01/25 06:36:17;;;;;;;31.52;18.13;;;3.20;99.90;;;;;;5069232;28;20668;-47
2023/01/25 06:38:46;;;;;;;35.58;19.58;;;3.20;99.90;;;;;;5053789;28;20177;-47
2023/01/25 06:41:12;;;;;;;29.48;19.10;;;3.30;99.90;;;;;;5053846;28;20182;-47
2023/01/25 06:43:37;;;;;;;35.63;21.05;;;3.30;99.90;;;;;;5054067;28;20225;-47
2023/01/25 06:46:06;;;;;;;31.48;18.15;;;3.30;99.90;;;;;;5053626;28;20316;-47
2023/01/25 06:48:32;;;;;;;39.42;21.30;;;3.20;99.90;;;;;;5068433;28;20193;-47
2023/01/25 06:51:06;;;;;;;32.65;20.13;;;3.30;99.90;;;;;;5073599;28;20193;-47
2023/01/25 06:53:35;;;;;;;37.92;19.33;;;3.30;99.90;;;;;;5073798;28;20279;-47
2023/01/25 06:56:03;;;;;;;32.22;18.40;;;3.40;99.90;;;;;;5072881;28;20167;-47
2023/01/25 06:58:30;;;;;;;39.03;20.27;;;3.30;99.90;;;;;;5073463;28;20522;-47
2023/01/25 07:01:14;;;;;;;34.33;20.50;;;3.20;99.90;;;;;;5073720;28;20582;-47
2023/01/25 07:03:40;;;;;;;35.92;20.63;;;3.30;99.90;;;;;;5073233;28;20259;-47
2023/01/25 07:06:07;;;;;;;34.42;17.92;;;3.20;99.90;;;;;;5073585;28;20231;-47
2023/01/25 07:08:34;;;;;;;34.75;20.77;;;3.40;99.90;;;;;;5073421;28;20174;-47
2023/01/25 07:11:02;;;;;;;30.98;19.15;;;3.40;99.90;;;;;;5073227;28;20162;-47
2023/01/25 07:13:29;;;;;;;33.30;19.90;;;3.40;99.90;;;;;;5073272;28;20170;-47
2023/01/25 07:15:56;;;;;;;29.02;17.63;;;3.20;99.90;;;;;;5067689;28;20185;-47
2023/01/25 07:18:22;;;;;;;35.00;19.08;;;3.20;99.90;;;;;;5052594;28;20163;-47
2023/01/25 07:20:48;;;;;;;35.70;21.08;;;3.10;99.90;;;;;;5052862;28;20166;-47
2023/01/25 07:23:14;;;;;;;34.95;20.00;;;3.20;99.90;;;;;;5052904;28;20216;-47
2023/01/25 07:25:47;;;;;;;32.95;19.80;;;3.10;99.90;;;;;;5052782;28;20170;-47
2023/01/25 07:28:13;;;;;;;34.97;19.70;;;3.10;99.90;;;;;;5053164;28;20170;-46
2023/01/25 07:30:40;;;;;;;32.42;19.17;;;3.30;99.90;;;;;;5052584;28;20253;-47
2023/01/25 07:33:05;;;;;;;32.00;17.80;;;3.30;99.90;;;;;;5053107;28;20174;-47
2023/01/25 07:35:31;;;;;;;36.30;20.70;;;3.20;99.90;;;;;;5056977;28;20641;-47
2023/01/25 07:37:57;;;;;;;39.88;21.67;;;3.30;99.90;;;;;;5072655;28;20609;-47
2023/01/25 07:40:24;;;;;;;33.88;18.75;;;3.30;99.90;;;;;;5072706;28;20167;-47
2023/01/25 07:42:52;;;;;;;37.22;20.85;;;3.30;99.90;;;;;;5072549;28;20213;-47
2023/01/25 07:45:19;;;;;;;35.85;19.52;;;3.30;99.90;;;;;;5072784;28;20169;-47
2023/01/25 07:47:44;;;;;;;34.75;19.95;;;3.30;99.90;;;;;;5072148;28;20166;-47
2023/01/25 07:50:10;;;;;;;36.78;20.77;;;3.20;99.90;;;;;;5072400;28;20649;-47
2023/01/25 07:52:36;;;;;;;33.67;18.73;;;3.30;99.90;;;;;;5063124;28;20213;-47
2023/01/25 07:55:02;;;;;;;36.97;19.90;;;3.20;99.90;;;;;;5056610;28;20174;-46
2023/01/25 07:57:28;;;;;;;33.90;20.17;;;3.10;99.90;;;;;;5068357;28;20170;-47
2023/01/25 07:59:53;;;;;;;35.95;20.45;;;3.20;99.90;;;;;;5072613;28;20168;-47
2023/01/25 08:02:19;;;;;;;36.67;19.95;;;3.20;99.90;;;;;;5072320;28;20198;-47
2023/01/25 08:04:45;;;;;;;38.35;19.60;;;3.20;99.90;;;;;;5054155;28;20210;-47
2023/01/25 08:07:12;;;;;;;35.45;20.38;;;3.30;99.90;;;;;;5056662;28;20171;-47
2023/01/25 08:09:38;;;;;;;34.67;19.83;;;3.20;99.90;;;;;;5072046;28;20169;-47
2023/01/25 08:12:04;;;;;;;33.95;18.23;;;3.20;99.90;;;;;;5071353;28;20162;-47
2023/01/25 08:14:30;;;;;;;35.95;19.08;;;3.20;99.90;;;;;;5070838;28;20162;-47
2023/01/25 08:16:55;;;;;;;37.65;20.13;;;3.20;99.90;;;;;;5072015;28;20158;-47
2023/01/25 08:19:21;;;;;;;38.55;19.65;;;3.20;99.90;;;;;;5072190;28;20178;-47
2023/01/25 08:21:47;;;;;;;37.83;22.15;;;3.20;99.90;;;;;;5070026;28;20202;-47
2023/01/25 08:24:12;;;;;;;41.65;21.88;;;3.20;99.90;;;;;;5051695;28;20178;-47
2023/01/25 08:26:38;;;;;;;37.53;20.77;;;3.20;99.90;;;;;;5070221;28;20171;-47
2023/01/25 08:29:05;;;;;;;40.92;22.30;;;3.20;99.90;;;;;;5071746;28;20166;-47
2023/01/25 08:31:33;;;;;;;52.88;28.92;;;3.20;99.90;;;;;;5071645;28;20169;-47
2023/01/25 08:34:00;;;;;;;43.17;23.77;;;3.30;99.90;;;;;;5072063;28;20201;-47
2023/01/25 08:36:26;;;;;;;41.15;19.88;;;3.40;99.90;;;;;;5071785;28;20170;-46
2023/01/25 08:38:58;;;;;;;36.92;19.90;;;3.20;99.90;;;;;;5072162;28;20172;-46
2023/01/25 08:41:25;;;;;;;40.47;21.30;;;3.20;99.90;;;;;;5072068;28;20177;-47
2023/01/25 08:43:52;;;;;;;39.75;21.42;;;3.30;99.90;;;;;;5072346;28;20585;-47
2023/01/25 08:46:18;;;;;;;40.38;20.70;;;3.30;99.90;;;;;;5070416;28;20169;-46
2023/01/25 08:48:44;;;;;;;40.70;21.77;;;3.30;99.90;;;;;;5071670;28;20166;-47
2023/01/25 08:51:15;;;;;;;43.30;22.42;;;3.30;99.90;;;;;;5071584;28;20183;-46
2023/01/25 08:53:41;;;;;;;36.50;20.25;;;3.40;99.90;;;;;;5071642;28;20720;-46
2023/01/25 08:56:13;;;;;;;41.00;20.00;;;3.40;99.90;;;;;;5071597;28;20220;-46
2023/01/25 08:58:42;;;;;;;35.33;21.20;;;3.40;99.90;;;;;;5071513;28;20174;-47
2023/01/25 09:01:10;;;;;;;40.15;21.83;;;3.40;99.90;;;;;;5071557;28;20214;-46
2023/01/25 09:03:37;;;;;;;37.40;19.88;;;3.40;99.90;;;;;;5071242;28;20221;-47
2023/01/25 09:06:03;;;;;;;40.05;20.77;;;3.40;99.90;;;;;;5069918;28;20169;-46
2023/01/25 09:08:28;;;;;;;37.47;19.92;;;3.40;99.90;;;;;;5051452;28;20170;-47
2023/01/25 09:10:54;;;;;;;33.70;19.75;;;3.50;99.90;;;;;;5051841;28;20653;-46
2023/01/25 09:13:19;;;;;;;40.92;20.70;;;3.50;99.90;;;;;;5050944;28;20163;-46
2023/01/25 09:15:45;;;;;;;39.92;21.50;;;3.40;99.90;;;;;;5051362;28;20580;-46
2023/01/25 09:18:11;;;;;;;44.47;23.00;;;3.10;99.90;;;;;;5051366;28;20574;-47
2023/01/25 09:20:39;;;;;;;43.47;24.20;;;3.10;99.90;;;;;;5051338;28;20185;-46
2023/01/25 09:23:05;;;;;;;44.63;21.75;;;3.10;99.90;;;;;;5051219;28;20221;-46
2023/01/25 09:25:31;;;;;;;48.30;21.88;;;3.40;99.90;;;;;;5051314;28;20242;-46
2023/01/25 09:27:56;;;;;;;38.38;21.17;;;3.40;99.90;;;;;;5053350;28;20228;-46
2023/01/25 09:30:22;;;;;;;42.30;21.52;;;1.80;99.90;;;;;;5071687;28;20163;-47
2023/01/25 09:32:49;;;;;;;37.88;21.67;;;3.30;99.90;;;;;;5071459;28;20194;-46
2023/01/25 09:35:15;;;;;;;43.85;22.65;;;3.30;99.90;;;;;;5071251;28;20158;-47
2023/01/25 09:37:40;;;;;;;58.35;29.52;;;3.40;99.90;;;;;;5071208;28;20166;-46
2023/01/25 09:40:20;;;;;;;55.85;27.25;;;3.30;99.90;;;;;;5071146;28;20169;-47
2023/01/25 09:43:11;;;;;;;43.30;22.90;;;3.40;99.90;;;;;;5073122;28;20695;-46
2023/01/25 09:45:37;;;;;;;42.58;22.65;;;3.00;99.90;;;;;;5072935;28;20256;-46
2023/01/25 09:48:18;;;;;;;50.28;26.92;;;2.90;99.90;;;;;;5054851;28;20167;-46
2023/01/25 09:50:57;;;;;;;53.17;26.98;;;3.00;99.90;;;;;;5054760;28;20159;-47
2023/01/25 09:53:29;;;;;;;47.22;24.83;;;3.10;99.90;;;;;;5055391;28;20166;-46
2023/01/25 09:56:03;;;;;;;44.78;24.15;;;3.10;99.90;;;;;;5054902;28;20239;-46
2023/01/25 09:58:33;;;;;;;71.57;32.83;;;3.20;99.90;;;;;;5054204;28;20536;-46
2023/01/25 10:01:15;;;;;;;50.70;23.85;;;3.10;99.90;;;;;;5054640;28;20171;-47
2023/01/25 10:03:59;;;;;;;53.25;25.35;;;3.20;99.90;;;;;;5054356;28;20214;-46
2023/01/25 10:06:35;;;;;;;46.95;22.25;;;3.30;99.90;;;;;;5064642;28;20170;-46
2023/01/25 10:09:20;;;;;;;49.75;22.27;;;3.30;99.90;;;;;;5074500;28;20199;-46
2023/01/25 10:11:46;;;;;;;47.63;23.50;;;3.30;99.90;;;;;;5066918;28;20194;-46
2023/01/25 10:14:17;;;;;;;44.22;22.30;;;3.30;99.90;;;;;;5074564;28;20265;-46
2023/01/25 10:16:45;;;;;;;44.35;24.15;;;3.30;99.90;;;;;;5074324;28;20177;-46
2023/01/25 10:19:48;;;;;;;44.03;23.67;;;3.40;99.90;;;;;;5074225;28;20162;-46
2023/01/25 10:22:27;;;;;;;41.70;21.25;;;3.40;99.90;;;;;;5060459;28;20202;-46
2023/01/25 10:25:10;;;;;;;43.28;23.10;;;3.50;99.90;;;;;;5074177;28;20228;-46
2023/01/25 10:28:13;;;;;;;46.75;22.85;;;3.50;99.90;;;;;;5060516;28;20167;-46
2023/01/25 10:30:59;;;;;;;42.17;22.83;;;3.50;99.90;;;;;;5053545;28;20171;-46
2023/01/25 10:33:27;;;;;;;46.00;23.40;;;3.50;99.90;;;;;;5057159;28;20167;-46
2023/01/25 10:35:54;;;;;;;51.30;25.02;;;3.50;99.90;;;;;;5053773;28;20171;-46
2023/01/25 10:38:41;;;;;;;56.90;24.30;;;3.60;99.90;;;;;;5053613;28;20163;-46
2023/01/25 10:41:37;;;;;;;53.38;23.40;;;3.70;99.90;;;;;;5053203;28;20171;-46
2023/01/25 10:44:36;;;;;;;49.13;23.60;;;3.70;99.90;;;;;;5052240;28;20658;-46
2023/01/25 10:46:57;;;;;;;57.47;24.83;;;3.60;99.90;;;;;;5051933;28;20228;-47
2023/01/25 10:49:50;;;;;;;49.10;24.02;;;3.50;99.90;;;;;;5053557;28;20174;-47
2023/01/25 10:52:22;;;;;;;52.25;23.73;;;3.60;99.90;;;;;;5050668;28;20186;-47
2023/01/25 10:55:00;;;;;;;57.55;24.45;;;3.60;99.90;;;;;;5052089;28;20269;-46
2023/01/25 10:57:26;;;;;;;51.42;23.52;;;3.60;99.90;;;;;;5053297;28;20661;-47
2023/01/25 10:59:51;;;;;;;55.03;25.73;;;3.40;99.90;;;;;;5057760;28;20253;-47
2023/01/25 11:02:34;;;;;;;46.85;23.58;;;3.50;99.90;;;;;;5064661;28;20301;-47
2023/01/25 11:05:18;;;;;;;60.58;26.08;;;3.40;99.90;;;;;;5068667;28;20226;-47
2023/01/25 11:07:45;;;;;;;51.50;23.48;;;3.30;99.90;;;;;;5061894;28;20174;-46
2023/01/25 11:10:30;;;;;;;58.97;24.50;;;3.40;99.90;;;;;;5054962;28;20167;-47
2023/01/25 11:13:14;;;;;;;59.67;25.25;;;3.20;99.90;;;;;;5056526;28;20220;-47
2023/01/25 11:15:51;;;;;;;62.47;25.77;;;3.20;99.90;;;;;;5052699;28;20174;-47
2023/01/25 11:18:24;;;;;;;61.58;25.40;;;3.10;99.90;;;;;;5068215;28;20660;-47
2023/01/25 11:21:11;;;;;;;58.67;26.13;;;3.00;99.90;;;;;;5069120;28;20182;-47
2023/01/25 11:23:37;;;;;;;60.10;23.00;;;3.20;99.90;;;;;;5072457;28;20209;-47
2023/01/25 11:26:13;;;;;;;52.65;23.48;;;3.20;99.90;;;;;;5072381;28;20166;-47
2023/01/25 11:28:39;;;;;;;50.75;23.25;;;3.10;99.90;;;;;;5072405;28;20249;-47
2023/01/25 11:31:09;;;;;;;53.65;23.15;;;3.10;99.90;;;;;;5071069;28;20257;-47
2023/01/25 11:33:35;;;;;;;50.55;24.80;;;3.10;99.90;;;;;;5072250;28;20166;-47
2023/01/25 11:36:34;;;;;;;43.80;21.75;;;3.10;99.90;;;;;;5072268;28;20172;-47
2023/01/25 11:39:09;;;;;;;58.80;23.80;;;3.10;99.90;;;;;;5072033;28;20223;-47
2023/01/25 11:41:59;;;;;;;51.70;23.05;;;3.20;99.90;;;;;;5063453;28;20174;-48
2023/01/25 11:44:46;;;;;;;61.53;25.52;;;3.20;99.90;;;;;;5052050;28;20169;-47
2023/01/25 11:47:53;;;;;;;63.83;24.30;;;3.20;99.90;;;;;;5052196;28;20206;-47
2023/01/25 11:50:45;;;;;;;59.65;23.83;;;3.10;99.90;;;;;;5051644;28;20162;-48
2023/01/25 11:53:20;;;;;;;59.53;25.27;;;3.20;99.90;;;;;;5052183;28;20190;-47
2023/01/25 11:55:54;;;;;;;62.03;24.17;;;3.10;99.90;;;;;;5051856;28;20162;-47
2023/01/25 11:58:39;;;;;;;65.63;26.65;;;3.00;99.90;;;;;;5052171;28;20247;-47
2023/01/25 12:01:23;;;;;;;54.00;23.15;;;3.00;99.90;;;;;;5057591;28;20257;-47
2023/01/25 12:04:32;;;;;;;56.30;24.40;;;3.00;99.90;;;;;;5071703;28;20221;-47
2023/01/25 12:07:04;;;;;;;64.28;26.63;;;3.10;99.90;;;;;;5071640;28;20165;-47
2023/01/25 12:09:42;;;;;;;59.72;24.70;;;3.00;99.90;;;;;;5071479;28;20178;-47
2023/01/25 12:12:50;;;;;;;65.60;25.30;;;3.00;99.90;;;;;;5071396;28;20173;-47
2023/01/25 12:15:38;;;;;;;65.53;25.35;;;3.00;99.90;;;;;;5071604;28;20180;-46
2023/01/25 12:18:45;;;;;;;70.80;25.42;;;3.10;99.90;;;;;;5070407;28;20173;-47
2023/01/25 12:21:22;;;;;;;55.83;25.33;;;3.10;99.90;;;;;;5062625;28;20492;-47
2023/01/25 12:24:05;;;;;;;68.03;27.23;;;3.00;99.90;;;;;;5051190;28;20297;-47
2023/01/25 12:26:59;;;;;;;72.22;28.38;;;3.00;99.90;;;;;;5051331;28;20166;-47
2023/01/25 12:29:33;;;;;;;63.30;27.92;;;3.00;99.90;;;;;;5051177;28;20271;-47
2023/01/25 12:32:44;;;;;;;64.10;25.73;;;3.00;99.90;;;;;;5051275;28;20165;-47
2023/01/25 12:35:28;;;;;;;60.47;26.73;;;2.90;99.90;;;;;;5028481;28;20190;-47
2023/01/25 12:38:01;;;;;;;68.82;26.88;;;2.80;99.90;;;;;;5051156;28;20530;-47
2023/01/25 12:40:41;;;;;;;64.25;26.70;;;2.80;99.90;;;;;;5055689;28;20172;-47
2023/01/25 12:43:19;;;;;;;84.30;31.23;;;2.80;99.90;;;;;;5070698;28;20205;-46
2023/01/25 12:45:48;;;;;;;59.75;26.48;;;2.80;99.90;;;;;;5071266;28;20169;-46
2023/01/25 12:48:23;;;;;;;61.20;26.85;;;2.80;99.90;;;;;;5071106;28;20174;-47
2023/01/25 12:51:08;;;;;;;60.97;25.00;;;2.90;99.90;;;;;;5071335;28;20169;-47
2023/01/25 12:53:41;;;;;;;53.17;22.67;;;3.00;99.90;;;;;;5060802;28;20170;-47